sensor_id;sensor_type;location;lat;lon;timestamp;temperature;humidity
20442;DHT22;10380;52.102;20.614;2022-10-16T00:01:19;15.50;99.90
20442;DHT22;10380;52.102;20.614;2022-10-16T00:03:47;15.50;99.90
20442;DHT22;10380;52.102;20.614;2022-10-16T00:06:17;15.50;99.90
20442;DHT22;10380;52.102;20.614;2022-10-16T00:08:44;15.50;99.90
20442;DHT22;10380;52.102;20.614;2022-10-16T00:11:14;15.50;99.90
20442;DHT22;10380;52.102;20.614;2022-10-16T00:13:43;15.40;99.90
20442;DHT22;10380;52.102;20.614;2022-10-16T00:16:11;15.50;99.90
20442;DHT22;10380;52.102;20.614;2022-10-16T00:18:39;15.40;99.90
20442;DHT22;10380;52.102;20.614;2022-10-16T00:21:13;15.50;99.90
20442;DHT22;10380;52.102;20.614;2022-10-16T00:23:41;15.40;99.90
20442;DHT22;10380;52.102;20.614;2022-10-16T00:26:12;15.40;99.90
20442;DHT22;10380;52.102;20.614;2022-10-16T00:28:40;15.40;99.90
20442;DHT22;10380;52.102;20.614;2022-10-16T00:31:11;15.30;99.90
20442;DHT22;10380;52.102;20.614;2022-10-16T00:33:39;15.30;99.90
20442;DHT22;10380;52.102;20.614;2022-10-16T00:36:09;15.30;99.90
20442;DHT22;10380;52.102;20.614;2022-10-16T00:38:36;15.30;99.90
20442;DHT22;10380;52.102;20.614;2022-10-16T00:41:06;15.30;99.90
20442;DHT22;10380;52.102;20.614;2022-10-16T00:43:53;15.30;99.90
20442;DHT22;10380;52.102;20.614;2022-10-16T00:46:24;15.30;99.90
20442;DHT22;10380;52.102;20.614;2022-10-16T00:51:27;15.30;99.90
20442;DHT22;10380;52.102;20.614;2022-10-16T00:53:56;15.30;99.90
20442;DHT22;10380;52.102;20.614;2022-10-16T00:56:24;15.30;99.90
20442;DHT22;10380;52.102;20.614;2022-10-16T00:58:51;15.30;99.90
20442;DHT22;10380;52.102;20.614;2022-10-16T01:01:19;15.30;99.90
20442;DHT22;10380;52.102;20.614;2022-10-16T01:03:46;15.30;99.90
20442;DHT22;10380;52.102;20.614;2022-10-16T01:14:54;15.10;99.90
20442;DHT22;10380;52.102;20.614;2022-10-16T01:17:45;15.10;99.90
20442;DHT22;10380;52.102;20.614;2022-10-16T01:20:31;15.00;99.90
20442;DHT22;10380;52.102;20.614;2022-10-16T01:25:41;14.90;99.90
20442;DHT22;10380;52.102;20.614;2022-10-16T01:28:15;14.90;99.90
20442;DHT22;10380;52.102;20.614;2022-10-16T01:30:45;14.90;99.90
20442;DHT22;10380;52.102;20.614;2022-10-16T01:33:51;14.90;99.90
20442;DHT22;10380;52.102;20.614;2022-10-16T01:36:21;14.90;99.90
20442;DHT22;10380;52.102;20.614;2022-10-16T01:38:51;14.90;99.90
20442;DHT22;10380;52.102;20.614;2022-10-16T01:41:25;15.00;99.90
20442;DHT22;10380;52.102;20.614;2022-10-16T01:44:08;15.00;99.90
20442;DHT22;10380;52.102;20.614;2022-10-16T01:46:39;15.00;99.90
20442;DHT22;10380;52.102;20.614;2022-10-16T01:49:09;15.00;99.90
20442;DHT22;10380;52.102;20.614;2022-10-16T01:51:37;15.00;99.90
20442;DHT22;10380;52.102;20.614;2022-10-16T01:54:06;15.00;99.90
20442;DHT22;10380;52.102;20.614;2022-10-16T01:56:35;15.00;99.90
20442;DHT22;10380;52.102;20.614;2022-10-16T01:59:17;15.00;99.90
20442;DHT22;10380;52.102;20.614;2022-10-16T02:01:51;15.00;99.90
20442;DHT22;10380;52.102;20.614;2022-10-16T02:04:26;15.00;99.90
20442;DHT22;10380;52.102;20.614;2022-10-16T02:06:55;14.90;99.90
20442;DHT22;10380;52.102;20.614;2022-10-16T02:09:22;14.90;99.90
20442;DHT22;10380;52.102;20.614;2022-10-16T02:11:51;14.90;99.90
20442;DHT22;10380;52.102;20.614;2022-10-16T02:14:20;14.90;99.90
20442;DHT22;10380;52.102;20.614;2022-10-16T02:16:48;14.90;99.90
20442;DHT22;10380;52.102;20.614;2022-10-16T02:19:17;14.90;99.90
20442;DHT22;10380;52.102;20.614;2022-10-16T02:21:55;14.90;99.90
20442;DHT22;10380;52.102;20.614;2022-10-16T02:24:54;14.90;99.90
20442;DHT22;10380;52.102;20.614;2022-10-16T02:32:51;14.80;99.90
20442;DHT22;10380;52.102;20.614;2022-10-16T02:35:20;14.80;99.90
20442;DHT22;10380;52.102;20.614;2022-10-16T02:37:48;14.80;99.90
20442;DHT22;10380;52.102;20.614;2022-10-16T02:40:17;14.70;99.90
20442;DHT22;10380;52.102;20.614;2022-10-16T02:42:51;14.70;99.90
20442;DHT22;10380;52.102;20.614;2022-10-16T02:45:19;14.70;99.90
20442;DHT22;10380;52.102;20.614;2022-10-16T02:47:46;14.70;99.90
20442;DHT22;10380;52.102;20.614;2022-10-16T02:50:14;14.70;99.90
20442;DHT22;10380;52.102;20.614;2022-10-16T02:52:41;14.70;99.90
20442;DHT22;10380;52.102;20.614;2022-10-16T02:55:08;14.70;99.90
20442;DHT22;10380;52.102;20.614;2022-10-16T02:57:35;14.70;99.90
20442;DHT22;10380;52.102;20.614;2022-10-16T03:00:04;14.70;99.90
20442;DHT22;10380;52.102;20.614;2022-10-16T03:02:32;14.70;99.90
20442;DHT22;10380;52.102;20.614;2022-10-16T03:04:59;14.70;99.90
20442;DHT22;10380;52.102;20.614;2022-10-16T03:07:25;14.70;99.90
20442;DHT22;10380;52.102;20.614;2022-10-16T03:09:53;14.70;99.90
20442;DHT22;10380;52.102;20.614;2022-10-16T03:12:22;14.70;99.90
20442;DHT22;10380;52.102;20.614;2022-10-16T03:14:49;14.70;99.90
20442;DHT22;10380;52.102;20.614;2022-10-16T03:17:16;14.70;99.90
20442;DHT22;10380;52.102;20.614;2022-10-16T03:19:43;14.60;99.90
20442;DHT22;10380;52.102;20.614;2022-10-16T03:22:10;14.60;99.90
20442;DHT22;10380;52.102;20.614;2022-10-16T03:24:37;14.60;99.90
20442;DHT22;10380;52.102;20.614;2022-10-16T03:27:05;14.60;99.90
20442;DHT22;10380;52.102;20.614;2022-10-16T03:29:32;14.60;99.90
20442;DHT22;10380;52.102;20.614;2022-10-16T03:32:00;14.60;99.90
20442;DHT22;10380;52.102;20.614;2022-10-16T03:34:27;14.60;99.90
20442;DHT22;10380;52.102;20.614;2022-10-16T03:36:54;14.60;99.90
20442;DHT22;10380;52.102;20.614;2022-10-16T03:39:21;14.60;99.90
20442;DHT22;10380;52.102;20.614;2022-10-16T03:41:49;14.50;99.90
20442;DHT22;10380;52.102;20.614;2022-10-16T03:44:16;14.50;99.90
20442;DHT22;10380;52.102;20.614;2022-10-16T03:46:43;14.40;99.90
20442;DHT22;10380;52.102;20.614;2022-10-16T03:49:10;14.40;99.90
20442;DHT22;10380;52.102;20.614;2022-10-16T03:51:37;14.20;99.90
20442;DHT22;10380;52.102;20.614;2022-10-16T03:54:04;14.30;99.90
20442;DHT22;10380;52.102;20.614;2022-10-16T03:56:31;14.20;99.90
20442;DHT22;10380;52.102;20.614;2022-10-16T03:58:58;14.10;99.90
20442;DHT22;10380;52.102;20.614;2022-10-16T04:01:26;14.10;99.90
20442;DHT22;10380;52.102;20.614;2022-10-16T04:03:53;14.00;99.90
20442;DHT22;10380;52.102;20.614;2022-10-16T04:06:20;13.90;99.90
20442;DHT22;10380;52.102;20.614;2022-10-16T04:08:47;13.90;99.90
20442;DHT22;10380;52.102;20.614;2022-10-16T04:11:15;13.80;99.90
20442;DHT22;10380;52.102;20.614;2022-10-16T04:13:42;13.80;99.90
20442;DHT22;10380;52.102;20.614;2022-10-16T04:16:09;13.70;99.90
20442;DHT22;10380;52.102;20.614;2022-10-16T04:18:36;13.60;99.90
20442;DHT22;10380;52.102;20.614;2022-10-16T04:21:05;13.60;99.90
20442;DHT22;10380;52.102;20.614;2022-10-16T04:23:32;13.60;99.90
20442;DHT22;10380;52.102;20.614;2022-10-16T04:26:00;13.50;99.90
20442;DHT22;10380;52.102;20.614;2022-10-16T04:28:27;13.50;99.90
20442;DHT22;10380;52.102;20.614;2022-10-16T04:30:54;13.40;99.90
20442;DHT22;10380;52.102;20.614;2022-10-16T04:33:22;13.40;99.90
20442;DHT22;10380;52.102;20.614;2022-10-16T04:35:56;13.40;99.90
20442;DHT22;10380;52.102;20.614;2022-10-16T04:38:23;13.30;99.90
20442;DHT22;10380;52.102;20.614;2022-10-16T04:40:50;13.30;99.90
20442;DHT22;10380;52.102;20.614;2022-10-16T04:43:17;13.30;99.90
20442;DHT22;10380;52.102;20.614;2022-10-16T04:45:45;13.30;99.90
20442;DHT22;10380;52.102;20.614;2022-10-16T04:48:12;13.30;99.90
20442;DHT22;10380;52.102;20.614;2022-10-16T04:50:39;13.20;99.90
20442;DHT22;10380;52.102;20.614;2022-10-16T04:53:06;13.20;99.90
20442;DHT22;10380;52.102;20.614;2022-10-16T04:55:33;13.20;99.90
20442;DHT22;10380;52.102;20.614;2022-10-16T04:58:01;13.10;99.90
20442;DHT22;10380;52.102;20.614;2022-10-16T05:00:29;13.10;99.90
20442;DHT22;10380;52.102;20.614;2022-10-16T05:02:56;13.10;99.90
20442;DHT22;10380;52.102;20.614;2022-10-16T05:05:24;13.00;99.90
20442;DHT22;10380;52.102;20.614;2022-10-16T05:07:51;13.10;99.90
20442;DHT22;10380;52.102;20.614;2022-10-16T05:10:18;13.00;99.90
20442;DHT22;10380;52.102;20.614;2022-10-16T05:12:46;13.00;99.90
20442;DHT22;10380;52.102;20.614;2022-10-16T05:15:13;13.00;99.90
20442;DHT22;10380;52.102;20.614;2022-10-16T05:17:41;13.00;99.90
20442;DHT22;10380;52.102;20.614;2022-10-16T05:20:11;13.00;99.90
20442;DHT22;10380;52.102;20.614;2022-10-16T05:22:38;12.90;99.90
20442;DHT22;10380;52.102;20.614;2022-10-16T05:25:06;12.90;99.90
20442;DHT22;10380;52.102;20.614;2022-10-16T05:27:33;12.90;99.90
20442;DHT22;10380;52.102;20.614;2022-10-16T05:30:01;12.90;99.90
20442;DHT22;10380;52.102;20.614;2022-10-16T05:32:28;12.90;99.90
20442;DHT22;10380;52.102;20.614;2022-10-16T05:34:55;12.90;99.90
20442;DHT22;10380;52.102;20.614;2022-10-16T05:37:22;12.90;99.90
20442;DHT22;10380;52.102;20.614;2022-10-16T05:39:49;12.90;99.90
20442;DHT22;10380;52.102;20.614;2022-10-16T05:42:16;12.90;99.90
20442;DHT22;10380;52.102;20.614;2022-10-16T05:44:43;12.90;99.90
20442;DHT22;10380;52.102;20.614;2022-10-16T05:47:12;12.90;99.90
20442;DHT22;10380;52.102;20.614;2022-10-16T05:49:40;13.00;99.90
20442;DHT22;10380;52.102;20.614;2022-10-16T05:52:07;13.00;99.90
20442;DHT22;10380;52.102;20.614;2022-10-16T05:54:34;13.00;99.90
20442;DHT22;10380;52.102;20.614;2022-10-16T05:57:01;13.10;99.90
20442;DHT22;10380;52.102;20.614;2022-10-16T05:59:29;13.20;99.90
20442;DHT22;10380;52.102;20.614;2022-10-16T06:01:56;13.20;99.90
20442;DHT22;10380;52.102;20.614;2022-10-16T06:04:23;13.30;99.90
20442;DHT22;10380;52.102;20.614;2022-10-16T06:06:50;13.40;99.90
20442;DHT22;10380;52.102;20.614;2022-10-16T06:09:17;13.40;99.90
20442;DHT22;10380;52.102;20.614;2022-10-16T06:11:44;13.50;99.90
20442;DHT22;10380;52.102;20.614;2022-10-16T06:14:10;13.60;99.90
20442;DHT22;10380;52.102;20.614;2022-10-16T06:16:38;13.70;99.90
20442;DHT22;10380;52.102;20.614;2022-10-16T06:19:05;13.70;99.90
20442;DHT22;10380;52.102;20.614;2022-10-16T06:21:34;13.80;99.90
20442;DHT22;10380;52.102;20.614;2022-10-16T06:24:02;13.90;99.90
20442;DHT22;10380;52.102;20.614;2022-10-16T06:26:31;13.90;99.90
20442;DHT22;10380;52.102;20.614;2022-10-16T06:28:59;14.00;99.90
20442;DHT22;10380;52.102;20.614;2022-10-16T06:31:27;14.10;99.90
20442;DHT22;10380;52.102;20.614;2022-10-16T06:33:57;14.10;99.90
20442;DHT22;10380;52.102;20.614;2022-10-16T06:36:25;14.20;99.90
20442;DHT22;10380;52.102;20.614;2022-10-16T06:38:52;14.30;99.90
20442;DHT22;10380;52.102;20.614;2022-10-16T06:41:21;14.30;99.90
20442;DHT22;10380;52.102;20.614;2022-10-16T06:43:49;14.40;99.90
20442;DHT22;10380;52.102;20.614;2022-10-16T06:46:19;14.50;99.90
20442;DHT22;10380;52.102;20.614;2022-10-16T06:48:46;14.70;99.90
20442;DHT22;10380;52.102;20.614;2022-10-16T06:51:16;14.80;99.90
20442;DHT22;10380;52.102;20.614;2022-10-16T06:53:45;14.90;99.90
20442;DHT22;10380;52.102;20.614;2022-10-16T06:56:30;15.00;99.90
20442;DHT22;10380;52.102;20.614;2022-10-16T06:58:58;15.00;99.90
20442;DHT22;10380;52.102;20.614;2022-10-16T07:01:26;15.10;99.90
20442;DHT22;10380;52.102;20.614;2022-10-16T07:03:53;15.10;99.90
20442;DHT22;10380;52.102;20.614;2022-10-16T07:06:22;15.20;99.90
20442;DHT22;10380;52.102;20.614;2022-10-16T07:08:50;15.20;99.90
20442;DHT22;10380;52.102;20.614;2022-10-16T07:11:20;15.20;99.90
20442;DHT22;10380;52.102;20.614;2022-10-16T07:13:48;15.20;99.90
20442;DHT22;10380;52.102;20.614;2022-10-16T07:16:26;15.30;99.90
20442;DHT22;10380;52.102;20.614;2022-10-16T07:19:00;15.40;99.90
20442;DHT22;10380;52.102;20.614;2022-10-16T07:21:30;15.40;99.90
20442;DHT22;10380;52.102;20.614;2022-10-16T07:24:00;15.50;99.90
20442;DHT22;10380;52.102;20.614;2022-10-16T07:26:32;15.60;99.90
20442;DHT22;10380;52.102;20.614;2022-10-16T07:28:59;15.70;99.90
20442;DHT22;10380;52.102;20.614;2022-10-16T07:31:28;15.80;99.90
20442;DHT22;10380;52.102;20.614;2022-10-16T07:33:55;15.90;99.90
20442;DHT22;10380;52.102;20.614;2022-10-16T07:36:24;16.10;99.90
20442;DHT22;10380;52.102;20.614;2022-10-16T07:38:51;16.30;99.90
20442;DHT22;10380;52.102;20.614;2022-10-16T07:41:24;16.40;99.90
20442;DHT22;10380;52.102;20.614;2022-10-16T07:43:52;16.60;99.90
20442;DHT22;10380;52.102;20.614;2022-10-16T07:46:21;16.80;99.90
20442;DHT22;10380;52.102;20.614;2022-10-16T07:48:49;16.90;99.90
20442;DHT22;10380;52.102;20.614;2022-10-16T07:51:18;17.10;99.90
20442;DHT22;10380;52.102;20.614;2022-10-16T07:53:46;17.20;99.90
20442;DHT22;10380;52.102;20.614;2022-10-16T07:56:14;17.30;99.90
20442;DHT22;10380;52.102;20.614;2022-10-16T07:58:42;17.30;99.90
20442;DHT22;10380;52.102;20.614;2022-10-16T08:01:11;17.30;99.90
20442;DHT22;10380;52.102;20.614;2022-10-16T08:03:44;17.40;99.90
20442;DHT22;10380;52.102;20.614;2022-10-16T08:06:12;17.50;99.90
20442;DHT22;10380;52.102;20.614;2022-10-16T08:08:39;17.70;99.90
20442;DHT22;10380;52.102;20.614;2022-10-16T08:11:06;17.80;99.90
20442;DHT22;10380;52.102;20.614;2022-10-16T08:13:33;17.90;99.90
20442;DHT22;10380;52.102;20.614;2022-10-16T08:16:00;17.90;99.90
20442;DHT22;10380;52.102;20.614;2022-10-16T08:18:28;18.00;99.90
20442;DHT22;10380;52.102;20.614;2022-10-16T08:20:56;18.10;99.90
20442;DHT22;10380;52.102;20.614;2022-10-16T08:23:25;18.30;99.90
20442;DHT22;10380;52.102;20.614;2022-10-16T08:25:56;18.30;99.90
20442;DHT22;10380;52.102;20.614;2022-10-16T08:28:28;18.40;99.90
20442;DHT22;10380;52.102;20.614;2022-10-16T08:30:55;18.40;99.90
20442;DHT22;10380;52.102;20.614;2022-10-16T08:33:23;18.40;99.90
20442;DHT22;10380;52.102;20.614;2022-10-16T08:35:51;18.40;99.90
20442;DHT22;10380;52.102;20.614;2022-10-16T08:38:19;18.40;99.90
20442;DHT22;10380;52.102;20.614;2022-10-16T08:40:46;18.50;99.90
20442;DHT22;10380;52.102;20.614;2022-10-16T08:43:28;18.40;99.90
20442;DHT22;10380;52.102;20.614;2022-10-16T08:48:57;18.40;99.90
20442;DHT22;10380;52.102;20.614;2022-10-16T08:51:32;18.40;99.90
20442;DHT22;10380;52.102;20.614;2022-10-16T08:56:31;18.40;99.90
20442;DHT22;10380;52.102;20.614;2022-10-16T08:59:00;18.40;99.90
20442;DHT22;10380;52.102;20.614;2022-10-16T09:01:44;18.40;99.90
20442;DHT22;10380;52.102;20.614;2022-10-16T09:08:22;18.50;99.90
20442;DHT22;10380;52.102;20.614;2022-10-16T09:13:19;18.70;99.90
20442;DHT22;10380;52.102;20.614;2022-10-16T09:18:38;18.70;99.90
20442;DHT22;10380;52.102;20.614;2022-10-16T09:21:11;18.60;99.90
20442;DHT22;10380;52.102;20.614;2022-10-16T09:23:40;18.70;99.90
20442;DHT22;10380;52.102;20.614;2022-10-16T09:26:13;18.70;99.90
20442;DHT22;10380;52.102;20.614;2022-10-16T09:28:41;18.70;99.90
20442;DHT22;10380;52.102;20.614;2022-10-16T09:31:16;18.80;99.90
20442;DHT22;10380;52.102;20.614;2022-10-16T09:33:47;18.90;99.90
20442;DHT22;10380;52.102;20.614;2022-10-16T09:36:16;18.90;99.90
20442;DHT22;10380;52.102;20.614;2022-10-16T09:38:44;18.90;99.90
20442;DHT22;10380;52.102;20.614;2022-10-16T09:41:17;18.90;99.90
20442;DHT22;10380;52.102;20.614;2022-10-16T09:43:54;18.90;99.90
20442;DHT22;10380;52.102;20.614;2022-10-16T09:46:29;18.90;99.90
20442;DHT22;10380;52.102;20.614;2022-10-16T09:51:33;18.90;99.90
20442;DHT22;10380;52.102;20.614;2022-10-16T09:54:14;18.80;99.90
20442;DHT22;10380;52.102;20.614;2022-10-16T09:56:43;18.90;99.90
20442;DHT22;10380;52.102;20.614;2022-10-16T09:59:20;18.90;99.90
20442;DHT22;10380;52.102;20.614;2022-10-16T10:01:52;18.90;99.90
20442;DHT22;10380;52.102;20.614;2022-10-16T10:04:21;19.00;99.90
20442;DHT22;10380;52.102;20.614;2022-10-16T10:06:54;19.10;99.90
20442;DHT22;10380;52.102;20.614;2022-10-16T10:09:27;19.20;99.90
20442;DHT22;10380;52.102;20.614;2022-10-16T10:11:57;19.30;99.90
20442;DHT22;10380;52.102;20.614;2022-10-16T10:14:26;19.50;99.90
20442;DHT22;10380;52.102;20.614;2022-10-16T10:17:16;19.60;99.90
20442;DHT22;10380;52.102;20.614;2022-10-16T10:19:58;19.70;99.90
20442;DHT22;10380;52.102;20.614;2022-10-16T10:33:25;20.20;99.90
20442;DHT22;10380;52.102;20.614;2022-10-16T10:46:57;20.50;99.90
20442;DHT22;10380;52.102;20.614;2022-10-16T10:49:48;20.40;99.90
20442;DHT22;10380;52.102;20.614;2022-10-16T11:06:07;20.40;99.90
20442;DHT22;10380;52.102;20.614;2022-10-16T11:08:42;20.40;99.90
20442;DHT22;10380;52.102;20.614;2022-10-16T11:11:16;20.40;99.90
20442;DHT22;10380;52.102;20.614;2022-10-16T11:16:43;20.60;99.90
20442;DHT22;10380;52.102;20.614;2022-10-16T11:22:01;21.00;99.90
20442;DHT22;10380;52.102;20.614;2022-10-16T11:24:48;21.20;99.90
20442;DHT22;10380;52.102;20.614;2022-10-16T11:27:33;21.10;99.90
20442;DHT22;10380;52.102;20.614;2022-10-16T11:30:05;21.10;99.90
20442;DHT22;10380;52.102;20.614;2022-10-16T11:33:48;21.20;99.90
20442;DHT22;10380;52.102;20.614;2022-10-16T11:41:27;21.60;99.90
20442;DHT22;10380;52.102;20.614;2022-10-16T11:44:05;21.50;99.90
20442;DHT22;10380;52.102;20.614;2022-10-16T11:46:36;21.50;99.90
20442;DHT22;10380;52.102;20.614;2022-10-16T11:49:26;21.50;99.90
20442;DHT22;10380;52.102;20.614;2022-10-16T11:52:06;21.60;99.90
20442;DHT22;10380;52.102;20.614;2022-10-16T11:55:02;21.70;99.90
20442;DHT22;10380;52.102;20.614;2022-10-16T11:57:33;22.10;99.90
20442;DHT22;10380;52.102;20.614;2022-10-16T12:00:10;22.40;99.90
20442;DHT22;10380;52.102;20.614;2022-10-16T12:02:52;22.70;99.90
20442;DHT22;10380;52.102;20.614;2022-10-16T12:05:37;22.90;99.90
20442;DHT22;10380;52.102;20.614;2022-10-16T12:08:13;23.00;99.90
20442;DHT22;10380;52.102;20.614;2022-10-16T12:10:43;23.10;99.90
20442;DHT22;10380;52.102;20.614;2022-10-16T12:13:33;23.20;99.90
20442;DHT22;10380;52.102;20.614;2022-10-16T12:18:40;23.40;99.90
20442;DHT22;10380;52.102;20.614;2022-10-16T12:21:08;23.60;99.90
20442;DHT22;10380;52.102;20.614;2022-10-16T12:23:46;23.70;99.90
20442;DHT22;10380;52.102;20.614;2022-10-16T12:26:26;23.80;99.90
20442;DHT22;10380;52.102;20.614;2022-10-16T12:28:55;23.90;99.90
20442;DHT22;10380;52.102;20.614;2022-10-16T12:31:22;23.90;99.90
20442;DHT22;10380;52.102;20.614;2022-10-16T12:34:01;23.80;99.90
20442;DHT22;10380;52.102;20.614;2022-10-16T12:36:35;23.90;99.90
20442;DHT22;10380;52.102;20.614;2022-10-16T12:39:03;23.90;99.90
20442;DHT22;10380;52.102;20.614;2022-10-16T12:41:35;24.00;99.90
20442;DHT22;10380;52.102;20.614;2022-10-16T12:44:03;24.10;99.90
20442;DHT22;10380;52.102;20.614;2022-10-16T12:51:40;23.70;99.90
20442;DHT22;10380;52.102;20.614;2022-10-16T12:59:49;24.00;99.90
20442;DHT22;10380;52.102;20.614;2022-10-16T13:10:40;23.50;99.90
20442;DHT22;10380;52.102;20.614;2022-10-16T13:26:54;22.50;99.90
20442;DHT22;10380;52.102;20.614;2022-10-16T13:29:23;22.40;99.90
20442;DHT22;10380;52.102;20.614;2022-10-16T13:31:50;22.30;99.90
20442;DHT22;10380;52.102;20.614;2022-10-16T13:34:20;22.10;99.90
20442;DHT22;10380;52.102;20.614;2022-10-16T13:36:50;21.90;99.90
20442;DHT22;10380;52.102;20.614;2022-10-16T13:39:28;21.80;99.90
20442;DHT22;10380;52.102;20.614;2022-10-16T13:42:10;21.70;99.90
20442;DHT22;10380;52.102;20.614;2022-10-16T13:44:50;21.60;99.90
20442;DHT22;10380;52.102;20.614;2022-10-16T13:47:28;21.50;99.90
20442;DHT22;10380;52.102;20.614;2022-10-16T13:50:13;21.40;99.90
20442;DHT22;10380;52.102;20.614;2022-10-16T13:52:40;21.30;99.90
20442;DHT22;10380;52.102;20.614;2022-10-16T13:55:16;21.20;99.90
20442;DHT22;10380;52.102;20.614;2022-10-16T13:57:44;21.10;99.90
20442;DHT22;10380;52.102;20.614;2022-10-16T14:00:23;21.00;99.90
20442;DHT22;10380;52.102;20.614;2022-10-16T14:03:01;20.80;99.90
20442;DHT22;10380;52.102;20.614;2022-10-16T14:05:28;20.80;99.90
20442;DHT22;10380;52.102;20.614;2022-10-16T14:07:56;20.70;99.90
20442;DHT22;10380;52.102;20.614;2022-10-16T14:10:30;20.70;99.90
20442;DHT22;10380;52.102;20.614;2022-10-16T14:13:08;20.70;99.90
20442;DHT22;10380;52.102;20.614;2022-10-16T14:15:47;20.60;99.90
20442;DHT22;10380;52.102;20.614;2022-10-16T14:18:20;20.60;99.90
20442;DHT22;10380;52.102;20.614;2022-10-16T14:20:49;20.50;99.90
20442;DHT22;10380;52.102;20.614;2022-10-16T14:23:28;20.50;99.90
20442;DHT22;10380;52.102;20.614;2022-10-16T14:26:15;20.40;99.90
20442;DHT22;10380;52.102;20.614;2022-10-16T14:28:43;20.40;99.90
20442;DHT22;10380;52.102;20.614;2022-10-16T14:31:27;20.40;99.90
20442;DHT22;10380;52.102;20.614;2022-10-16T14:33:55;20.40;99.90
20442;DHT22;10380;52.102;20.614;2022-10-16T14:36:22;20.40;99.90
20442;DHT22;10380;52.102;20.614;2022-10-16T14:39:00;20.40;99.90
20442;DHT22;10380;52.102;20.614;2022-10-16T14:41:30;20.40;99.90
20442;DHT22;10380;52.102;20.614;2022-10-16T14:44:03;20.40;99.90
20442;DHT22;10380;52.102;20.614;2022-10-16T14:46:35;20.40;99.90
20442;DHT22;10380;52.102;20.614;2022-10-16T14:51:37;20.40;99.90
20442;DHT22;10380;52.102;20.614;2022-10-16T14:54:04;20.30;99.90
20442;DHT22;10380;52.102;20.614;2022-10-16T14:56:40;20.30;99.90
20442;DHT22;10380;52.102;20.614;2022-10-16T14:59:35;20.30;99.90
20442;DHT22;10380;52.102;20.614;2022-10-16T15:02:02;20.30;99.90
20442;DHT22;10380;52.102;20.614;2022-10-16T15:04:35;20.20;99.90
20442;DHT22;10380;52.102;20.614;2022-10-16T15:07:02;20.10;99.90
20442;DHT22;10380;52.102;20.614;2022-10-16T15:09:29;20.10;99.90
20442;DHT22;10380;52.102;20.614;2022-10-16T15:11:56;20.10;99.90
20442;DHT22;10380;52.102;20.614;2022-10-16T15:14:23;20.10;99.90
20442;DHT22;10380;52.102;20.614;2022-10-16T15:16:50;20.00;99.90
20442;DHT22;10380;52.102;20.614;2022-10-16T15:19:16;20.00;99.90
20442;DHT22;10380;52.102;20.614;2022-10-16T15:21:43;20.00;99.90
20442;DHT22;10380;52.102;20.614;2022-10-16T15:24:14;19.90;99.90
20442;DHT22;10380;52.102;20.614;2022-10-16T15:26:46;20.00;99.90
20442;DHT22;10380;52.102;20.614;2022-10-16T15:29:13;19.90;99.90
20442;DHT22;10380;52.102;20.614;2022-10-16T15:31:41;19.90;99.90
20442;DHT22;10380;52.102;20.614;2022-10-16T15:34:10;19.80;99.90
20442;DHT22;10380;52.102;20.614;2022-10-16T15:36:38;19.80;99.90
20442;DHT22;10380;52.102;20.614;2022-10-16T15:39:15;19.70;99.90
20442;DHT22;10380;52.102;20.614;2022-10-16T15:41:44;19.70;99.90
20442;DHT22;10380;52.102;20.614;2022-10-16T15:44:11;19.60;99.90
20442;DHT22;10380;52.102;20.614;2022-10-16T15:46:38;19.60;99.90
20442;DHT22;10380;52.102;20.614;2022-10-16T15:49:05;19.50;99.90
20442;DHT22;10380;52.102;20.614;2022-10-16T15:51:32;19.50;99.90
20442;DHT22;10380;52.102;20.614;2022-10-16T15:54:00;19.50;99.90
20442;DHT22;10380;52.102;20.614;2022-10-16T15:56:29;19.50;99.90
20442;DHT22;10380;52.102;20.614;2022-10-16T15:58:57;19.40;99.90
20442;DHT22;10380;52.102;20.614;2022-10-16T16:01:25;19.40;99.90
20442;DHT22;10380;52.102;20.614;2022-10-16T16:03:53;19.40;99.90
20442;DHT22;10380;52.102;20.614;2022-10-16T16:06:21;19.40;99.90
20442;DHT22;10380;52.102;20.614;2022-10-16T16:08:48;19.30;99.90
20442;DHT22;10380;52.102;20.614;2022-10-16T16:11:16;19.30;99.90
20442;DHT22;10380;52.102;20.614;2022-10-16T16:13:44;19.20;99.90
20442;DHT22;10380;52.102;20.614;2022-10-16T16:16:13;19.20;99.90
20442;DHT22;10380;52.102;20.614;2022-10-16T16:18:41;19.10;99.90
20442;DHT22;10380;52.102;20.614;2022-10-16T16:21:10;19.10;99.90
20442;DHT22;10380;52.102;20.614;2022-10-16T16:23:37;19.00;99.90
20442;DHT22;10380;52.102;20.614;2022-10-16T16:26:12;19.00;99.90
20442;DHT22;10380;52.102;20.614;2022-10-16T16:28:40;18.90;99.90
20442;DHT22;10380;52.102;20.614;2022-10-16T16:31:08;18.80;99.90
20442;DHT22;10380;52.102;20.614;2022-10-16T16:33:35;18.80;99.90
20442;DHT22;10380;52.102;20.614;2022-10-16T16:36:04;18.70;99.90
20442;DHT22;10380;52.102;20.614;2022-10-16T16:38:40;18.70;99.90
20442;DHT22;10380;52.102;20.614;2022-10-16T16:41:15;18.60;99.90
20442;DHT22;10380;52.102;20.614;2022-10-16T16:43:42;18.60;99.90
20442;DHT22;10380;52.102;20.614;2022-10-16T16:46:09;18.50;99.90
20442;DHT22;10380;52.102;20.614;2022-10-16T16:48:37;18.40;99.90
20442;DHT22;10380;52.102;20.614;2022-10-16T16:51:09;18.40;99.90
20442;DHT22;10380;52.102;20.614;2022-10-16T16:53:36;18.40;99.90
20442;DHT22;10380;52.102;20.614;2022-10-16T16:56:05;18.30;99.90
20442;DHT22;10380;52.102;20.614;2022-10-16T16:58:32;18.30;99.90
20442;DHT22;10380;52.102;20.614;2022-10-16T17:00:59;18.20;99.90
20442;DHT22;10380;52.102;20.614;2022-10-16T17:03:46;18.20;99.90
20442;DHT22;10380;52.102;20.614;2022-10-16T17:06:14;18.10;99.90
20442;DHT22;10380;52.102;20.614;2022-10-16T17:08:41;18.10;99.90
20442;DHT22;10380;52.102;20.614;2022-10-16T17:11:17;18.00;99.90
20442;DHT22;10380;52.102;20.614;2022-10-16T17:13:45;17.90;99.90
20442;DHT22;10380;52.102;20.614;2022-10-16T17:16:13;17.90;99.90
20442;DHT22;10380;52.102;20.614;2022-10-16T17:18:40;17.90;99.90
20442;DHT22;10380;52.102;20.614;2022-10-16T17:21:09;17.80;99.90
20442;DHT22;10380;52.102;20.614;2022-10-16T17:23:37;17.80;99.90
20442;DHT22;10380;52.102;20.614;2022-10-16T17:26:06;17.80;99.90
20442;DHT22;10380;52.102;20.614;2022-10-16T17:28:33;17.80;99.90
20442;DHT22;10380;52.102;20.614;2022-10-16T17:31:28;17.70;99.90
20442;DHT22;10380;52.102;20.614;2022-10-16T17:33:57;17.80;99.90
20442;DHT22;10380;52.102;20.614;2022-10-16T17:36:25;17.70;99.90
20442;DHT22;10380;52.102;20.614;2022-10-16T17:38:57;17.70;99.90